sensor_id;sensor_type;location;lat;lon;timestamp;temperature;humidity
43697;DHT22;29301;47.620;19.560;2023-05-16T00:00:05;14.90;99.90
43697;DHT22;29301;47.620;19.560;2023-05-16T00:02:34;14.90;99.90
43697;DHT22;29301;47.620;19.560;2023-05-16T00:05:00;14.90;99.90
43697;DHT22;29301;47.620;19.560;2023-05-16T00:07:26;14.80;99.90
43697;DHT22;29301;47.620;19.560;2023-05-16T00:09:51;14.90;99.90
43697;DHT22;29301;47.620;19.560;2023-05-16T00:12:17;14.90;99.90
43697;DHT22;29301;47.620;19.560;2023-05-16T00:14:44;14.90;99.90
43697;DHT22;29301;47.620;19.560;2023-05-16T00:17:09;14.90;99.90
43697;DHT22;29301;47.620;19.560;2023-05-16T00:19:38;14.80;99.90
43697;DHT22;29301;47.620;19.560;2023-05-16T00:22:05;14.90;99.90
43697;DHT22;29301;47.620;19.560;2023-05-16T00:24:31;14.90;99.90
43697;DHT22;29301;47.620;19.560;2023-05-16T00:26:57;14.80;99.90
43697;DHT22;29301;47.620;19.560;2023-05-16T00:29:22;14.80;99.90
43697;DHT22;29301;47.620;19.560;2023-05-16T00:31:51;14.90;99.90
43697;DHT22;29301;47.620;19.560;2023-05-16T00:34:16;14.80;99.90
43697;DHT22;29301;47.620;19.560;2023-05-16T00:36:42;14.90;99.90
43697;DHT22;29301;47.620;19.560;2023-05-16T00:39:08;14.80;99.90
43697;DHT22;29301;47.620;19.560;2023-05-16T00:41:35;14.80;99.90
43697;DHT22;29301;47.620;19.560;2023-05-16T00:44:02;14.70;99.90
43697;DHT22;29301;47.620;19.560;2023-05-16T00:46:28;14.80;99.90
43697;DHT22;29301;47.620;19.560;2023-05-16T00:48:53;14.70;99.90
43697;DHT22;29301;47.620;19.560;2023-05-16T00:51:19;14.80;99.90
43697;DHT22;29301;47.620;19.560;2023-05-16T00:53:45;14.80;99.90
43697;DHT22;29301;47.620;19.560;2023-05-16T00:56:11;14.80;99.90
43697;DHT22;29301;47.620;19.560;2023-05-16T00:58:36;14.80;99.90
43697;DHT22;29301;47.620;19.560;2023-05-16T01:01:02;14.80;99.90
43697;DHT22;29301;47.620;19.560;2023-05-16T01:03:29;14.80;99.90
43697;DHT22;29301;47.620;19.560;2023-05-16T01:05:56;14.80;99.90
43697;DHT22;29301;47.620;19.560;2023-05-16T01:08:22;14.80;99.90
43697;DHT22;29301;47.620;19.560;2023-05-16T01:11:08;14.70;99.90
43697;DHT22;29301;47.620;19.560;2023-05-16T01:16:25;14.80;99.90
43697;DHT22;29301;47.620;19.560;2023-05-16T01:26:59;14.80;99.90
43697;DHT22;29301;47.620;19.560;2023-05-16T01:29:26;14.80;99.90
43697;DHT22;29301;47.620;19.560;2023-05-16T01:31:52;14.80;99.90
43697;DHT22;29301;47.620;19.560;2023-05-16T01:34:17;14.80;99.90
43697;DHT22;29301;47.620;19.560;2023-05-16T01:36:56;14.80;99.90
43697;DHT22;29301;47.620;19.560;2023-05-16T01:39:44;14.90;99.90
43697;DHT22;29301;47.620;19.560;2023-05-16T01:42:15;14.80;99.90
43697;DHT22;29301;47.620;19.560;2023-05-16T01:45:03;14.80;99.90
43697;DHT22;29301;47.620;19.560;2023-05-16T01:47:30;14.80;99.90
43697;DHT22;29301;47.620;19.560;2023-05-16T01:50:08;14.80;99.90
43697;DHT22;29301;47.620;19.560;2023-05-16T01:55:04;14.80;99.90
43697;DHT22;29301;47.620;19.560;2023-05-16T01:57:35;14.80;99.90
43697;DHT22;29301;47.620;19.560;2023-05-16T02:00:01;14.80;99.90
43697;DHT22;29301;47.620;19.560;2023-05-16T02:02:27;14.70;99.90
43697;DHT22;29301;47.620;19.560;2023-05-16T02:04:52;14.70;99.90
43697;DHT22;29301;47.620;19.560;2023-05-16T02:07:18;14.70;99.90
43697;DHT22;29301;47.620;19.560;2023-05-16T02:09:44;14.70;99.90
43697;DHT22;29301;47.620;19.560;2023-05-16T02:12:09;14.70;99.90
43697;DHT22;29301;47.620;19.560;2023-05-16T02:14:35;14.70;99.90
43697;DHT22;29301;47.620;19.560;2023-05-16T02:17:01;14.70;99.90
43697;DHT22;29301;47.620;19.560;2023-05-16T02:19:26;14.60;99.90
43697;DHT22;29301;47.620;19.560;2023-05-16T02:21:52;14.60;99.90
43697;DHT22;29301;47.620;19.560;2023-05-16T02:24:17;14.60;99.90
43697;DHT22;29301;47.620;19.560;2023-05-16T02:26:43;14.60;99.90
43697;DHT22;29301;47.620;19.560;2023-05-16T02:29:09;14.60;99.90
43697;DHT22;29301;47.620;19.560;2023-05-16T02:31:35;14.50;99.90
43697;DHT22;29301;47.620;19.560;2023-05-16T02:34:01;14.40;99.90
43697;DHT22;29301;47.620;19.560;2023-05-16T02:36:27;14.40;99.90
43697;DHT22;29301;47.620;19.560;2023-05-16T02:38:53;14.50;99.90
43697;DHT22;29301;47.620;19.560;2023-05-16T02:41:19;14.50;99.90
43697;DHT22;29301;47.620;19.560;2023-05-16T02:43:47;14.50;99.90
43697;DHT22;29301;47.620;19.560;2023-05-16T02:46:20;14.50;99.90
43697;DHT22;29301;47.620;19.560;2023-05-16T02:48:46;14.50;99.90
43697;DHT22;29301;47.620;19.560;2023-05-16T02:51:12;14.60;99.90
43697;DHT22;29301;47.620;19.560;2023-05-16T02:53:37;14.60;99.90
43697;DHT22;29301;47.620;19.560;2023-05-16T02:56:03;14.60;99.90
43697;DHT22;29301;47.620;19.560;2023-05-16T02:58:31;14.60;99.90
43697;DHT22;29301;47.620;19.560;2023-05-16T03:00:57;14.60;99.90
43697;DHT22;29301;47.620;19.560;2023-05-16T03:03:23;14.60;99.90
43697;DHT22;29301;47.620;19.560;2023-05-16T03:05:49;14.60;99.90
43697;DHT22;29301;47.620;19.560;2023-05-16T03:08:14;14.70;99.90
43697;DHT22;29301;47.620;19.560;2023-05-16T03:10:40;14.70;99.90
43697;DHT22;29301;47.620;19.560;2023-05-16T03:13:06;14.70;99.90
43697;DHT22;29301;47.620;19.560;2023-05-16T03:15:31;14.60;99.90
43697;DHT22;29301;47.620;19.560;2023-05-16T03:17:57;14.50;99.90
43697;DHT22;29301;47.620;19.560;2023-05-16T03:20:23;14.40;99.90
43697;DHT22;29301;47.620;19.560;2023-05-16T03:22:48;14.40;99.90
43697;DHT22;29301;47.620;19.560;2023-05-16T03:25:14;14.40;99.90
43697;DHT22;29301;47.620;19.560;2023-05-16T03:27:40;14.50;99.90
43697;DHT22;29301;47.620;19.560;2023-05-16T03:30:06;14.40;99.90
43697;DHT22;29301;47.620;19.560;2023-05-16T03:32:33;14.40;99.90
43697;DHT22;29301;47.620;19.560;2023-05-16T03:34:58;14.40;99.90
43697;DHT22;29301;47.620;19.560;2023-05-16T03:37:24;14.40;99.90
43697;DHT22;29301;47.620;19.560;2023-05-16T03:39:50;14.40;99.90
43697;DHT22;29301;47.620;19.560;2023-05-16T03:42:16;14.40;99.90
43697;DHT22;29301;47.620;19.560;2023-05-16T03:44:43;14.40;99.90
43697;DHT22;29301;47.620;19.560;2023-05-16T03:47:09;14.40;99.90
43697;DHT22;29301;47.620;19.560;2023-05-16T03:49:35;14.40;99.90
43697;DHT22;29301;47.620;19.560;2023-05-16T03:52:02;14.40;99.90
43697;DHT22;29301;47.620;19.560;2023-05-16T03:54:28;14.40;99.90
43697;DHT22;29301;47.620;19.560;2023-05-16T03:56:54;14.40;99.90
43697;DHT22;29301;47.620;19.560;2023-05-16T03:59:19;14.40;99.90
43697;DHT22;29301;47.620;19.560;2023-05-16T04:01:46;14.40;99.90
43697;DHT22;29301;47.620;19.560;2023-05-16T04:04:11;14.40;99.90
43697;DHT22;29301;47.620;19.560;2023-05-16T04:06:38;14.40;99.90
43697;DHT22;29301;47.620;19.560;2023-05-16T04:09:04;14.30;99.90
43697;DHT22;29301;47.620;19.560;2023-05-16T04:11:34;14.40;99.90
43697;DHT22;29301;47.620;19.560;2023-05-16T04:14:00;14.30;99.90
43697;DHT22;29301;47.620;19.560;2023-05-16T04:16:26;14.40;99.90
43697;DHT22;29301;47.620;19.560;2023-05-16T04:18:52;14.40;99.90
43697;DHT22;29301;47.620;19.560;2023-05-16T04:21:17;14.40;99.90
43697;DHT22;29301;47.620;19.560;2023-05-16T04:23:43;14.40;99.90
43697;DHT22;29301;47.620;19.560;2023-05-16T04:26:09;14.50;99.90
43697;DHT22;29301;47.620;19.560;2023-05-16T04:28:35;14.40;99.90
43697;DHT22;29301;47.620;19.560;2023-05-16T04:31:01;14.50;99.90
43697;DHT22;29301;47.620;19.560;2023-05-16T04:33:26;14.50;99.90
43697;DHT22;29301;47.620;19.560;2023-05-16T04:35:52;14.50;99.90
43697;DHT22;29301;47.620;19.560;2023-05-16T04:38:19;14.50;99.90
43697;DHT22;29301;47.620;19.560;2023-05-16T04:40:45;14.50;99.90
43697;DHT22;29301;47.620;19.560;2023-05-16T04:43:10;14.50;99.90
43697;DHT22;29301;47.620;19.560;2023-05-16T04:45:36;14.50;99.90
43697;DHT22;29301;47.620;19.560;2023-05-16T04:48:02;14.50;99.90
43697;DHT22;29301;47.620;19.560;2023-05-16T04:50:28;14.40;99.90
43697;DHT22;29301;47.620;19.560;2023-05-16T04:52:53;14.40;99.90
43697;DHT22;29301;47.620;19.560;2023-05-16T04:55:19;14.50;99.90
43697;DHT22;29301;47.620;19.560;2023-05-16T04:57:45;14.50;99.90
43697;DHT22;29301;47.620;19.560;2023-05-16T05:00:11;14.50;99.90
43697;DHT22;29301;47.620;19.560;2023-05-16T05:02:38;14.50;99.90
43697;DHT22;29301;47.620;19.560;2023-05-16T05:05:04;14.60;99.90
43697;DHT22;29301;47.620;19.560;2023-05-16T05:07:33;14.50;99.90
43697;DHT22;29301;47.620;19.560;2023-05-16T05:09:59;14.60;99.90
43697;DHT22;29301;47.620;19.560;2023-05-16T05:12:25;14.60;99.90
43697;DHT22;29301;47.620;19.560;2023-05-16T05:14:52;14.50;99.90
43697;DHT22;29301;47.620;19.560;2023-05-16T05:17:19;14.50;99.90
43697;DHT22;29301;47.620;19.560;2023-05-16T05:19:46;14.60;99.90
43697;DHT22;29301;47.620;19.560;2023-05-16T05:22:13;14.70;99.90
43697;DHT22;29301;47.620;19.560;2023-05-16T05:24:38;14.60;99.90
43697;DHT22;29301;47.620;19.560;2023-05-16T05:27:04;14.60;99.90
43697;DHT22;29301;47.620;19.560;2023-05-16T05:29:30;14.60;99.90
43697;DHT22;29301;47.620;19.560;2023-05-16T05:31:56;14.70;99.90
43697;DHT22;29301;47.620;19.560;2023-05-16T05:34:21;14.70;99.90
43697;DHT22;29301;47.620;19.560;2023-05-16T05:36:47;14.70;99.90
43697;DHT22;29301;47.620;19.560;2023-05-16T05:39:13;14.60;99.90
43697;DHT22;29301;47.620;19.560;2023-05-16T05:41:38;14.60;99.90
43697;DHT22;29301;47.620;19.560;2023-05-16T05:44:05;14.60;99.90
43697;DHT22;29301;47.620;19.560;2023-05-16T05:46:31;14.70;99.90
43697;DHT22;29301;47.620;19.560;2023-05-16T05:48:58;14.70;99.90
43697;DHT22;29301;47.620;19.560;2023-05-16T05:51:24;14.70;99.90
43697;DHT22;29301;47.620;19.560;2023-05-16T05:53:51;14.70;99.90
43697;DHT22;29301;47.620;19.560;2023-05-16T05:56:16;14.70;99.90
43697;DHT22;29301;47.620;19.560;2023-05-16T05:58:43;14.70;99.90
43697;DHT22;29301;47.620;19.560;2023-05-16T06:01:10;14.70;99.90
43697;DHT22;29301;47.620;19.560;2023-05-16T06:03:36;14.70;99.90
43697;DHT22;29301;47.620;19.560;2023-05-16T06:06:03;14.70;99.90
43697;DHT22;29301;47.620;19.560;2023-05-16T06:08:28;14.80;99.90
43697;DHT22;29301;47.620;19.560;2023-05-16T06:10:54;14.80;99.90
43697;DHT22;29301;47.620;19.560;2023-05-16T06:13:20;14.80;99.90
43697;DHT22;29301;47.620;19.560;2023-05-16T06:15:50;14.80;99.90
43697;DHT22;29301;47.620;19.560;2023-05-16T06:18:16;14.80;99.90
43697;DHT22;29301;47.620;19.560;2023-05-16T06:20:41;14.90;99.90
43697;DHT22;29301;47.620;19.560;2023-05-16T06:23:07;14.90;99.90
43697;DHT22;29301;47.620;19.560;2023-05-16T06:25:33;14.90;99.90
43697;DHT22;29301;47.620;19.560;2023-05-16T06:27:58;14.90;99.90
43697;DHT22;29301;47.620;19.560;2023-05-16T06:30:24;14.90;99.90
43697;DHT22;29301;47.620;19.560;2023-05-16T06:32:49;14.90;99.90
43697;DHT22;29301;47.620;19.560;2023-05-16T06:35:15;15.00;99.90
43697;DHT22;29301;47.620;19.560;2023-05-16T06:37:41;14.90;99.90
43697;DHT22;29301;47.620;19.560;2023-05-16T06:40:07;14.90;99.90
43697;DHT22;29301;47.620;19.560;2023-05-16T06:42:32;14.90;99.90
43697;DHT22;29301;47.620;19.560;2023-05-16T06:44:58;14.90;99.90
43697;DHT22;29301;47.620;19.560;2023-05-16T06:47:24;14.90;99.90
43697;DHT22;29301;47.620;19.560;2023-05-16T06:49:50;14.90;99.90
43697;DHT22;29301;47.620;19.560;2023-05-16T06:52:15;14.90;99.90
43697;DHT22;29301;47.620;19.560;2023-05-16T06:54:41;14.90;99.90
43697;DHT22;29301;47.620;19.560;2023-05-16T06:57:07;14.90;99.90
43697;DHT22;29301;47.620;19.560;2023-05-16T06:59:33;14.90;99.90
43697;DHT22;29301;47.620;19.560;2023-05-16T07:02:00;14.90;99.90
43697;DHT22;29301;47.620;19.560;2023-05-16T07:04:26;14.90;99.90
43697;DHT22;29301;47.620;19.560;2023-05-16T07:06:52;14.90;99.90
43697;DHT22;29301;47.620;19.560;2023-05-16T07:09:19;14.90;99.90
43697;DHT22;29301;47.620;19.560;2023-05-16T07:11:45;14.80;99.90
43697;DHT22;29301;47.620;19.560;2023-05-16T07:14:11;14.70;99.90
43697;DHT22;29301;47.620;19.560;2023-05-16T07:16:36;14.70;99.90
43697;DHT22;29301;47.620;19.560;2023-05-16T07:19:02;14.70;99.90
43697;DHT22;29301;47.620;19.560;2023-05-16T07:21:28;14.60;99.90
43697;DHT22;29301;47.620;19.560;2023-05-16T07:23:54;14.50;99.90
43697;DHT22;29301;47.620;19.560;2023-05-16T07:26:19;14.50;99.90
43697;DHT22;29301;47.620;19.560;2023-05-16T07:28:48;14.50;99.90
43697;DHT22;29301;47.620;19.560;2023-05-16T07:31:15;14.50;99.90
43697;DHT22;29301;47.620;19.560;2023-05-16T07:33:44;14.50;99.90
43697;DHT22;29301;47.620;19.560;2023-05-16T07:36:12;14.40;99.90
43697;DHT22;29301;47.620;19.560;2023-05-16T07:38:38;14.40;99.90
43697;DHT22;29301;47.620;19.560;2023-05-16T07:41:04;14.40;99.90
43697;DHT22;29301;47.620;19.560;2023-05-16T07:43:30;14.40;99.90
43697;DHT22;29301;47.620;19.560;2023-05-16T07:45:56;14.40;99.90
43697;DHT22;29301;47.620;19.560;2023-05-16T07:48:22;14.50;99.90
43697;DHT22;29301;47.620;19.560;2023-05-16T07:50:47;14.50;99.90
43697;DHT22;29301;47.620;19.560;2023-05-16T07:53:13;14.50;99.90
43697;DHT22;29301;47.620;19.560;2023-05-16T07:55:39;14.50;99.90
43697;DHT22;29301;47.620;19.560;2023-05-16T07:58:04;14.60;99.90
43697;DHT22;29301;47.620;19.560;2023-05-16T08:00:30;14.60;99.90
43697;DHT22;29301;47.620;19.560;2023-05-16T08:02:56;14.60;99.90
43697;DHT22;29301;47.620;19.560;2023-05-16T08:05:22;14.70;99.90
43697;DHT22;29301;47.620;19.560;2023-05-16T08:07:48;14.60;99.90
43697;DHT22;29301;47.620;19.560;2023-05-16T08:10:14;14.60;99.90
43697;DHT22;29301;47.620;19.560;2023-05-16T08:12:40;14.60;99.90
43697;DHT22;29301;47.620;19.560;2023-05-16T08:15:06;14.60;99.90
43697;DHT22;29301;47.620;19.560;2023-05-16T08:17:32;14.60;99.90
43697;DHT22;29301;47.620;19.560;2023-05-16T08:19:58;14.70;99.90
43697;DHT22;29301;47.620;19.560;2023-05-16T08:22:26;14.70;99.90
43697;DHT22;29301;47.620;19.560;2023-05-16T08:24:51;14.70;99.90
43697;DHT22;29301;47.620;19.560;2023-05-16T08:27:17;14.70;99.90
43697;DHT22;29301;47.620;19.560;2023-05-16T08:29:43;14.70;99.90
43697;DHT22;29301;47.620;19.560;2023-05-16T08:32:08;14.70;99.90
43697;DHT22;29301;47.620;19.560;2023-05-16T08:34:37;14.70;99.90
43697;DHT22;29301;47.620;19.560;2023-05-16T08:37:02;14.80;99.90
43697;DHT22;29301;47.620;19.560;2023-05-16T08:39:28;14.70;99.90
43697;DHT22;29301;47.620;19.560;2023-05-16T08:41:55;14.70;99.90
43697;DHT22;29301;47.620;19.560;2023-05-16T08:44:21;14.70;99.90
43697;DHT22;29301;47.620;19.560;2023-05-16T08:46:51;14.80;99.90
43697;DHT22;29301;47.620;19.560;2023-05-16T08:49:17;14.80;99.90
43697;DHT22;29301;47.620;19.560;2023-05-16T08:51:45;14.80;99.90
43697;DHT22;29301;47.620;19.560;2023-05-16T08:54:13;14.80;99.90
43697;DHT22;29301;47.620;19.560;2023-05-16T08:56:40;14.80;99.90
43697;DHT22;29301;47.620;19.560;2023-05-16T08:59:07;14.80;99.90
43697;DHT22;29301;47.620;19.560;2023-05-16T09:01:32;14.90;99.90
43697;DHT22;29301;47.620;19.560;2023-05-16T09:03:59;14.90;99.90
43697;DHT22;29301;47.620;19.560;2023-05-16T09:06:25;15.00;99.90
43697;DHT22;29301;47.620;19.560;2023-05-16T09:08:52;15.00;99.90
43697;DHT22;29301;47.620;19.560;2023-05-16T09:11:18;15.00;99.90
43697;DHT22;29301;47.620;19.560;2023-05-16T09:13:44;15.00;99.90
43697;DHT22;29301;47.620;19.560;2023-05-16T09:16:13;15.00;99.90
43697;DHT22;29301;47.620;19.560;2023-05-16T09:18:41;15.00;99.90
43697;DHT22;29301;47.620;19.560;2023-05-16T09:21:09;15.10;99.90
43697;DHT22;29301;47.620;19.560;2023-05-16T09:23:35;15.10;99.90
43697;DHT22;29301;47.620;19.560;2023-05-16T09:26:01;15.10;99.90
43697;DHT22;29301;47.620;19.560;2023-05-16T09:28:27;15.10;99.90
43697;DHT22;29301;47.620;19.560;2023-05-16T09:30:53;15.10;99.90
43697;DHT22;29301;47.620;19.560;2023-05-16T09:33:22;15.10;99.90
43697;DHT22;29301;47.620;19.560;2023-05-16T09:35:56;15.10;99.90
43697;DHT22;29301;47.620;19.560;2023-05-16T09:38:22;15.10;99.90
43697;DHT22;29301;47.620;19.560;2023-05-16T09:40:49;15.20;99.90
43697;DHT22;29301;47.620;19.560;2023-05-16T09:43:16;15.20;99.90
43697;DHT22;29301;47.620;19.560;2023-05-16T09:45:46;15.20;99.90
43697;DHT22;29301;47.620;19.560;2023-05-16T09:48:13;15.30;99.90
43697;DHT22;29301;47.620;19.560;2023-05-16T09:50:40;15.30;99.90
43697;DHT22;29301;47.620;19.560;2023-05-16T09:53:12;15.30;99.90
43697;DHT22;29301;47.620;19.560;2023-05-16T09:55:38;15.30;99.90
43697;DHT22;29301;47.620;19.560;2023-05-16T09:58:03;15.40;99.90
43697;DHT22;29301;47.620;19.560;2023-05-16T10:00:31;15.30;99.90
43697;DHT22;29301;47.620;19.560;2023-05-16T10:02:58;15.30;99.90
43697;DHT22;29301;47.620;19.560;2023-05-16T10:05:27;15.40;99.90
43697;DHT22;29301;47.620;19.560;2023-05-16T10:07:56;15.40;99.90
43697;DHT22;29301;47.620;19.560;2023-05-16T10:10:23;15.40;99.90
43697;DHT22;29301;47.620;19.560;2023-05-16T10:12:52;15.40;99.90
43697;DHT22;29301;47.620;19.560;2023-05-16T10:15:21;15.40;99.90
43697;DHT22;29301;47.620;19.560;2023-05-16T10:17:50;15.40;99.90
43697;DHT22;29301;47.620;19.560;2023-05-16T10:20:17;15.30;99.90
43697;DHT22;29301;47.620;19.560;2023-05-16T10:22:46;15.40;99.90
43697;DHT22;29301;47.620;19.560;2023-05-16T10:25:24;15.30;99.90
43697;DHT22;29301;47.620;19.560;2023-05-16T10:27:50;15.30;99.90
43697;DHT22;29301;47.620;19.560;2023-05-16T10:30:17;15.30;99.90
43697;DHT22;29301;47.620;19.560;2023-05-16T10:32:45;15.30;99.90
43697;DHT22;29301;47.620;19.560;2023-05-16T10:35:12;15.40;99.90
43697;DHT22;29301;47.620;19.560;2023-05-16T10:37:38;15.30;99.90
43697;DHT22;29301;47.620;19.560;2023-05-16T10:40:05;15.40;99.90
43697;DHT22;29301;47.620;19.560;2023-05-16T10:42:32;15.40;99.90
43697;DHT22;29301;47.620;19.560;2023-05-16T10:45:18;15.40;99.90
43697;DHT22;29301;47.620;19.560;2023-05-16T10:47:51;15.40;99.90
43697;DHT22;29301;47.620;19.560;2023-05-16T10:50:34;15.40;99.90
43697;DHT22;29301;47.620;19.560;2023-05-16T10:53:19;15.40;99.90
43697;DHT22;29301;47.620;19.560;2023-05-16T10:55:49;15.40;99.90
43697;DHT22;29301;47.620;19.560;2023-05-16T10:58:42;15.40;99.90
43697;DHT22;29301;47.620;19.560;2023-05-16T11:01:34;15.40;99.90
43697;DHT22;29301;47.620;19.560;2023-05-16T11:04:00;15.40;99.90
43697;DHT22;29301;47.620;19.560;2023-05-16T11:06:43;15.50;99.90
43697;DHT22;29301;47.620;19.560;2023-05-16T11:14:34;15.50;99.90
43697;DHT22;29301;47.620;19.560;2023-05-16T11:17:18;15.50;99.90
43697;DHT22;29301;47.620;19.560;2023-05-16T11:19:48;15.50;99.90
43697;DHT22;29301;47.620;19.560;2023-05-16T11:22:25;15.50;99.90
43697;DHT22;29301;47.620;19.560;2023-05-16T11:25:02;15.50;99.90
43697;DHT22;29301;47.620;19.560;2023-05-16T11:27:31;15.60;99.90
43697;DHT22;29301;47.620;19.560;2023-05-16T11:32:37;15.70;99.90
43697;DHT22;29301;47.620;19.560;2023-05-16T11:35:07;15.70;99.90
43697;DHT22;29301;47.620;19.560;2023-05-16T11:37:33;15.80;99.90
43697;DHT22;29301;47.620;19.560;2023-05-16T11:40:02;15.80;99.90
43697;DHT22;29301;47.620;19.560;2023-05-16T11:42:34;15.80;99.90
43697;DHT22;29301;47.620;19.560;2023-05-16T11:45:16;15.80;99.90
43697;DHT22;29301;47.620;19.560;2023-05-16T11:47:44;15.90;99.90
43697;DHT22;29301;47.620;19.560;2023-05-16T11:50:12;15.90;99.90
43697;DHT22;29301;47.620;19.560;2023-05-16T11:52:38;16.00;99.90
43697;DHT22;29301;47.620;19.560;2023-05-16T11:55:07;16.00;99.90
43697;DHT22;29301;47.620;19.560;2023-05-16T11:57:38;16.00;99.90
43697;DHT22;29301;47.620;19.560;2023-05-16T12:00:17;16.10;99.90
43697;DHT22;29301;47.620;19.560;2023-05-16T12:02:47;16.10;99.90
43697;DHT22;29301;47.620;19.560;2023-05-16T12:05:15;16.10;99.90
43697;DHT22;29301;47.620;19.560;2023-05-16T12:07:44;16.10;99.90
43697;DHT22;29301;47.620;19.560;2023-05-16T12:10:13;16.20;99.90
43697;DHT22;29301;47.620;19.560;2023-05-16T12:12:49;16.10;99.90
43697;DHT22;29301;47.620;19.560;2023-05-16T12:15:18;16.20;99.90
43697;DHT22;29301;47.620;19.560;2023-05-16T12:17:45;16.20;99.90
43697;DHT22;29301;47.620;19.560;2023-05-16T12:20:11;16.20;99.90
43697;DHT22;29301;47.620;19.560;2023-05-16T12:22:43;16.30;99.90
43697;DHT22;29301;47.620;19.560;2023-05-16T12:27:53;16.30;99.90
43697;DHT22;29301;47.620;19.560;2023-05-16T12:30:21;16.30;99.90
43697;DHT22;29301;47.620;19.560;2023-05-16T12:32:58;16.30;99.90
43697;DHT22;29301;47.620;19.560;2023-05-16T12:35:29;16.40;99.90
43697;DHT22;29301;47.620;19.560;2023-05-16T12:37:55;16.40;99.90
43697;DHT22;29301;47.620;19.560;2023-05-16T12:40:21;16.50;99.90
43697;DHT22;29301;47.620;19.560;2023-05-16T12:42:52;16.50;99.90
43697;DHT22;29301;47.620;19.560;2023-05-16T12:45:18;16.50;99.90
43697;DHT22;29301;47.620;19.560;2023-05-16T12:47:44;16.50;99.90
43697;DHT22;29301;47.620;19.560;2023-05-16T12:50:11;16.60;99.90
43697;DHT22;29301;47.620;19.560;2023-05-16T12:52:46;16.60;99.90
43697;DHT22;29301;47.620;19.560;2023-05-16T12:55:14;16.60;99.90
43697;DHT22;29301;47.620;19.560;2023-05-16T12:57:44;16.60;99.90
43697;DHT22;29301;47.620;19.560;2023-05-16T13:00:11;16.60;99.90
43697;DHT22;29301;47.620;19.560;2023-05-16T13:02:37;16.70;99.90
43697;DHT22;29301;47.620;19.560;2023-05-16T13:05:03;16.80;99.90
43697;DHT22;29301;47.620;19.560;2023-05-16T13:07:29;16.80;99.90
43697;DHT22;29301;47.620;19.560;2023-05-16T13:09:55;16.80;99.90
43697;DHT22;29301;47.620;19.560;2023-05-16T13:12:21;16.80;99.90
43697;DHT22;29301;47.620;19.560;2023-05-16T13:14:53;16.90;99.90
43697;DHT22;29301;47.620;19.560;2023-05-16T13:17:19;16.90;99.90
43697;DHT22;29301;47.620;19.560;2023-05-16T13:19:44;16.90;99.90
43697;DHT22;29301;47.620;19.560;2023-05-16T13:22:10;16.80;99.90
43697;DHT22;29301;47.620;19.560;2023-05-16T13:24:36;16.80;99.90
43697;DHT22;29301;47.620;19.560;2023-05-16T13:27:02;16.80;99.90
43697;DHT22;29301;47.620;19.560;2023-05-16T13:29:28;16.80;99.90
43697;DHT22;29301;47.620;19.560;2023-05-16T13:31:53;16.70;99.90
43697;DHT22;29301;47.620;19.560;2023-05-16T13:34:19;16.70;99.90
43697;DHT22;29301;47.620;19.560;2023-05-16T13:36:45;16.70;99.90
43697;DHT22;29301;47.620;19.560;2023-05-16T13:39:12;16.70;99.90
43697;DHT22;29301;47.620;19.560;2023-05-16T13:41:38;16.70;99.90
43697;DHT22;29301;47.620;19.560;2023-05-16T13:44:05;16.60;99.90
43697;DHT22;29301;47.620;19.560;2023-05-16T13:46:31;16.60;99.90
43697;DHT22;29301;47.620;19.560;2023-05-16T13:48:56;16.60;99.90
43697;DHT22;29301;47.620;19.560;2023-05-16T13:51:22;16.60;99.90
43697;DHT22;29301;47.620;19.560;2023-05-16T13:53:48;16.60;99.90
43697;DHT22;29301;47.620;19.560;2023-05-16T13:56:14;16.60;99.90
43697;DHT22;29301;47.620;19.560;2023-05-16T13:58:39;16.60;99.90
43697;DHT22;29301;47.620;19.560;2023-05-16T14:01:05;16.60;99.90
43697;DHT22;29301;47.620;19.560;2023-05-16T14:03:31;16.50;99.90
43697;DHT22;29301;47.620;19.560;2023-05-16T14:05:57;16.60;99.90
43697;DHT22;29301;47.620;19.560;2023-05-16T14:08:23;16.50;99.90
43697;DHT22;29301;47.620;19.560;2023-05-16T14:10:48;16.50;99.90
43697;DHT22;29301;47.620;19.560;2023-05-16T14:13:14;16.50;99.90
43697;DHT22;29301;47.620;19.560;2023-05-16T14:15:40;16.50;99.90
43697;DHT22;29301;47.620;19.560;2023-05-16T14:18:05;16.50;99.90
43697;DHT22;29301;47.620;19.560;2023-05-16T14:20:31;16.50;99.90
43697;DHT22;29301;47.620;19.560;2023-05-16T14:22:57;16.50;99.90
43697;DHT22;29301;47.620;19.560;2023-05-16T14:25:23;16.50;99.90
43697;DHT22;29301;47.620;19.560;2023-05-16T14:27:49;16.50;99.90
43697;DHT22;29301;47.620;19.560;2023-05-16T14:30:15;16.40;99.90
43697;DHT22;29301;47.620;19.560;2023-05-16T14:32:41;16.40;99.90
43697;DHT22;29301;47.620;19.560;2023-05-16T14:35:07;16.60;99.90
43697;DHT22;29301;47.620;19.560;2023-05-16T14:37:34;16.60;99.90
43697;DHT22;29301;47.620;19.560;2023-05-16T14:40:00;16.60;99.90
43697;DHT22;29301;47.620;19.560;2023-05-16T14:42:26;16.70;99.90
43697;DHT22;29301;47.620;19.560;2023-05-16T14:44:51;16.70;99.90
43697;DHT22;29301;47.620;19.560;2023-05-16T14:47:17;16.80;99.90
43697;DHT22;29301;47.620;19.560;2023-05-16T14:49:43;16.70;99.90
43697;DHT22;29301;47.620;19.560;2023-05-16T14:52:09;16.80;99.90
43697;DHT22;29301;47.620;19.560;2023-05-16T14:54:34;16.80;99.90
43697;DHT22;29301;47.620;19.560;2023-05-16T14:57:01;16.80;99.90
43697;DHT22;29301;47.620;19.560;2023-05-16T14:59:28;16.90;99.90
43697;DHT22;29301;47.620;19.560;2023-05-16T15:01:54;16.90;99.90
43697;DHT22;29301;47.620;19.560;2023-05-16T15:04:19;16.90;99.90
43697;DHT22;29301;47.620;19.560;2023-05-16T15:06:45;17.00;99.90
43697;DHT22;29301;47.620;19.560;2023-05-16T15:09:11;16.90;99.90
43697;DHT22;29301;47.620;19.560;2023-05-16T15:11:37;17.00;99.90
43697;DHT22;29301;47.620;19.560;2023-05-16T15:14:02;17.00;99.90
43697;DHT22;29301;47.620;19.560;2023-05-16T15:16:29;17.00;99.90
43697;DHT22;29301;47.620;19.560;2023-05-16T15:18:55;16.90;99.90
43697;DHT22;29301;47.620;19.560;2023-05-16T15:21:21;16.90;99.90
43697;DHT22;29301;47.620;19.560;2023-05-16T15:23:48;16.90;99.90
43697;DHT22;29301;47.620;19.560;2023-05-16T15:26:16;16.80;99.90
43697;DHT22;29301;47.620;19.560;2023-05-16T15:28:42;16.80;99.90
43697;DHT22;29301;47.620;19.560;2023-05-16T15:31:07;16.80;99.90
43697;DHT22;29301;47.620;19.560;2023-05-16T15:33:33;16.70;99.90
43697;DHT22;29301;47.620;19.560;2023-05-16T15:35:59;16.70;99.90
43697;DHT22;29301;47.620;19.560;2023-05-16T15:38:24;16.70;99.90